Hector, Arkansas
Current Conditions -  °F | °C
As of 2:53 PM on Tuesday 21 Oct 2014 (Local Time) from KRUE Reporting Station
Clear Clear  
Wind Chill: 77°   Ceiling: Unl
Heat Index: 78°   Visibility: 10mi
Dew Point: 53°   Wind: 3mph
Humidity: 43%   Direction: NA
Pressure: 30.06"   Gusts: NA
Location:  35.47°N, 92.97°W
Report Text: KRUE 211953Z AUTO VRB03KT 10SM CLR 25/12 A3006 RMK AO2 SLP172 T02500117
Loading
Personal Weather Stations






























Interactive Weather Map
Tropical Storm Tracking
New forecast layout! Learn more

10-Day Weather Forecast

Advertisements
Track Severe Weather on mobile